Time+07,TemperatureF,Dew PointF,Humidity,Sea Level PressureIn,VisibilityMPH,Wind Direction,Wind SpeedMPH,Gust SpeedMPH,PrecipitationIn,Events,Conditions,WindDirDegrees,DateUTC
12:00 AM,75.2,69.8,83,29.98,3.7,NE,3.5,-,N/A,,Unknown,50,2014-01-30 17:00:00
12:30 AM,73.4,68.0,83,29.98,3.1,East,2.3,-,N/A,,Mist,80,2014-01-30 17:30:00
1:00 AM,74,64,64,29.94,4,Calm,Calm,,,,Mist,,2014-01-30 18:00:00
1:00 AM,73.4,68.0,83,29.95,3.1,Calm,Calm,-,N/A,,Mist,0,2014-01-30 18:00:00
1:30 AM,73.4,69.8,88,29.95,2.5,Calm,Calm,-,N/A,,Mist,0,2014-01-30 18:30:00
2:00 AM,73.4,69.8,88,29.95,2.5,Calm,Calm,-,N/A,,Mist,0,2014-01-30 19:00:00
2:30 AM,73.4,68.0,83,29.95,2.5,Calm,Calm,-,N/A,,Mist,0,2014-01-30 19:30:00
3:00 AM,71.6,68.0,88,29.92,2.5,Calm,Calm,-,N/A,,Mist,0,2014-01-30 20:00:00
3:30 AM,73.4,66.2,78,29.92,3.7,ENE,5.8,-,N/A,,Unknown,70,2014-01-30 20:30:00
4:00 AM,72,66,75,29.92,4,Calm,Calm,,,,Mist,,2014-01-30 21:00:00
4:00 AM,73.4,62.6,69,29.92,4.3,East,4.6,-,N/A,,Unknown,90,2014-01-30 21:00:00
4:30 AM,73.4,60.8,65,29.92,5.0,East,4.6,-,N/A,,Unknown,80,2014-01-30 21:30:00
5:00 AM,73.4,59.0,61,29.92,5.6,ENE,3.5,-,N/A,,Unknown,70,2014-01-30 22:00:00
5:30 AM,73.4,59.0,61,29.92,5.6,East,4.6,-,N/A,,Unknown,90,2014-01-30 22:30:00
6:00 AM,73.4,59.0,61,29.95,5.6,East,4.6,-,N/A,,Unknown,100,2014-01-30 23:00:00
6:30 AM,73.4,59.0,61,29.95,5.6,East,4.6,-,N/A,,Unknown,100,2014-01-30 23:30:00
7:00 AM,73,60,56,29.95,4,East,3.5,,,,Haze,80,2014-01-31 00:00:00
7:00 AM,73.4,59.0,61,29.95,5.6,East,5.8,-,N/A,,Unknown,100,2014-01-31 00:00:00
7:30 AM,73.4,60.8,65,29.98,5.6,ENE,6.9,-,N/A,,Unknown,60,2014-01-31 00:30:00
8:00 AM,75.2,59.0,57,29.98,-9999.0,ENE,4.6,-,N/A,,Clear,60,2014-01-31 01:00:00
8:30 AM,77.0,59.0,54,30.01,-9999.0,East,8.1,-,N/A,,Clear,90,2014-01-31 01:30:00
9:00 AM,78.8,57.2,47,30.01,-9999.0,East,10.4,-,N/A,,Clear,100,2014-01-31 02:00:00
9:30 AM,78.8,57.2,47,30.01,-9999.0,East,11.5,-,N/A,,Clear,90,2014-01-31 02:30:00
10:00 AM,86,56,25,30.00,5,NE,6.9,,,,Haze,40,2014-01-31 03:00:00
10:00 AM,80.6,59.0,48,30.04,-9999.0,East,11.5,-,N/A,,Clear,80,2014-01-31 03:00:00
10:30 AM,80.6,57.2,45,30.04,-9999.0,East,10.4,-,N/A,,Clear,90,2014-01-31 03:30:00
11:00 AM,82.4,57.2,42,30.01,-9999.0,East,11.5,-,N/A,,Clear,90,2014-01-31 04:00:00
11:30 AM,84.2,57.2,40,30.01,-9999.0,East,11.5,-,N/A,,Clear,100,2014-01-31 04:30:00
12:00 PM,86.0,53.6,33,29.98,-9999.0,East,12.7,-,N/A,,Clear,90,2014-01-31 05:00:00
12:30 PM,87.8,53.6,31,29.98,-9999.0,East,11.5,-,N/A,,Clear,90,2014-01-31 05:30:00
1:00 PM,91,55,20,29.93,5,Calm,Calm,,,,Haze,,2014-01-31 06:00:00
1:00 PM,87.8,53.6,31,29.95,-9999.0,East,10.4,-,N/A,,Clear,80,2014-01-31 06:00:00
1:30 PM,87.8,55.4,33,29.95,-9999.0,East,10.4,-,N/A,,Clear,90,2014-01-31 06:30:00
2:00 PM,87.8,51.8,29,29.92,-9999.0,East,8.1,-,N/A,,Clear,80,2014-01-31 07:00:00
2:30 PM,89.6,48.2,24,29.92,-9999.0,East,10.4,-,N/A,,Clear,80,2014-01-31 07:30:00
3:00 PM,89.6,46.4,22,29.89,-9999.0,ENE,8.1,-,N/A,,Clear,70,2014-01-31 08:00:00
3:30 PM,89.6,50.0,26,29.89,-9999.0,ESE,6.9,-,N/A,,Clear,120,2014-01-31 08:30:00
4:00 PM,90,63,30,29.87,5,Calm,Calm,,,,Haze,,2014-01-31 09:00:00
4:00 PM,89.6,48.2,24,29.89,-9999.0,East,3.5,-,N/A,,Clear,80,2014-01-31 09:00:00
4:30 PM,89.6,50.0,26,29.89,-9999.0,Variable,4.6,-,N/A,,Clear,0,2014-01-31 09:30:00
5:00 PM,89.6,48.2,24,29.89,-9999.0,ESE,4.6,-,N/A,,Clear,110,2014-01-31 10:00:00
5:30 PM,89.6,48.2,24,29.89,-9999.0,Calm,Calm,-,N/A,,Clear,0,2014-01-31 10:30:00
6:00 PM,86.0,50.0,29,29.89,-9999.0,Calm,Calm,-,N/A,,Clear,0,2014-01-31 11:00:00
6:30 PM,82.4,60.8,48,29.89,-9999.0,SSW,9.2,-,N/A,,Clear,200,2014-01-31 11:30:00
7:00 PM,81,67,53,29.89,5,ENE,5.8,,,,Haze,60,2014-01-31 12:00:00
7:00 PM,80.6,64.4,58,29.89,-9999.0,SSW,11.5,-,N/A,,Clear,200,2014-01-31 12:00:00
7:30 PM,80.6,66.2,61,29.92,-9999.0,SSW,10.4,-,N/A,,Clear,210,2014-01-31 12:30:00
8:00 PM,78.8,68.0,69,29.92,-9999.0,SSW,11.5,-,N/A,,Clear,210,2014-01-31 13:00:00
8:30 PM,78.8,68.0,69,29.95,5.6,SSW,11.5,-,N/A,,Unknown,200,2014-01-31 13:30:00
9:00 PM,78.8,68.0,69,29.95,5.6,SSW,9.2,-,N/A,,Unknown,210,2014-01-31 14:00:00
9:30 PM,78.8,66.2,65,29.95,5.6,SW,8.1,-,N/A,,Unknown,220,2014-01-31 14:30:00
10:00 PM,78,66,59,29.94,5,NE,4.6,,,,Mist,40,2014-01-31 15:00:00
10:00 PM,77.0,64.4,65,29.95,-9999.0,SW,6.9,-,N/A,,Clear,220,2014-01-31 15:00:00
10:30 PM,75.2,64.4,69,29.95,-9999.0,SSW,4.6,-,N/A,,Clear,200,2014-01-31 15:30:00
11:00 PM,77.0,64.4,65,29.95,-9999.0,South,3.5,-,N/A,,Clear,190,2014-01-31 16:00:00
11:30 PM,75.2,64.4,69,29.95,-9999.0,South,3.5,-,N/A,,Clear,190,2014-01-31 16:30:00